Time;durP1;ratioP1;P1;durP2;ratioP2;P2;SDS_P1;SDS_P2;PMS_P1;PMS_P2;Temp;Humidity;BMP_temperature;BMP_pressure;BME280_temperature;BME280_humidity;BME280_pressure;Samples;Min_cycle;Max_cycle;Signal;HPM_P1;HPM_P2
2022/03/27 00:02:24;;;;;;;29.67;18.53;;;;;8.40;102604.00;;;;10146556;29;20748;-79
2022/03/27 00:07:26;;;;;;;28.67;18.63;;;;;8.30;102600.00;;;;10145460;29;20275;-79
2022/03/27 00:12:28;;;;;;;28.53;18.90;;;;;8.20;102608.00;;;;10145715;29;20203;-80
2022/03/27 00:17:33;;;;;;;31.37;18.80;;;;;8.10;102602.00;;;;10145870;29;20206;-80
2022/03/27 00:22:36;;;;;;;28.43;18.93;;;;;8.10;102603.00;;;;10128236;29;20195;-79
2022/03/27 00:27:39;;;;;;;32.93;19.37;;;;;8.10;102597.00;;;;10126332;29;20229;-79
2022/03/27 00:32:41;;;;;;;26.97;17.70;;;;;8.00;102600.00;;;;10142355;29;20240;-80
2022/03/27 00:37:43;;;;;;;25.87;17.13;;;;;8.00;102601.00;;;;10129792;29;20266;-79
2022/03/27 00:42:45;;;;;;;28.80;18.90;;;;;8.00;102600.00;;;;10129771;29;20211;-80
2022/03/27 00:47:47;;;;;;;25.93;16.50;;;;;8.00;102598.00;;;;10128808;29;20222;-79
2022/03/27 00:52:49;;;;;;;25.63;16.80;;;;;7.90;102595.00;;;;10143802;29;20207;-79
2022/03/27 00:57:51;;;;;;;24.17;16.00;;;;;7.90;102598.00;;;;10126470;29;20210;-80
2022/03/27 01:02:55;;;;;;;25.43;16.63;;;;;7.90;102602.00;;;;10142771;29;20219;-80
2022/03/27 01:08:00;;;;;;;27.90;16.80;;;;;7.80;102597.00;;;;10143597;29;20240;-80
2022/03/27 01:13:19;;;;;;;22.67;16.23;;;;;7.80;102594.00;;;;10143169;29;20203;-80
2022/03/27 01:18:22;;;;;;;28.57;17.20;;;;;7.70;102591.00;;;;10127115;29;20816;-79
2022/03/27 01:23:23;;;;;;;27.80;16.70;;;;;7.50;102593.00;;;;10157152;29;20199;-80
2022/03/27 01:28:25;;;;;;;27.17;17.47;;;;;7.50;102587.00;;;;10142149;29;20226;-80
2022/03/27 01:33:27;;;;;;;26.20;16.70;;;;;7.40;102589.00;;;;10143584;29;20210;-79
2022/03/27 01:38:29;;;;;;;33.27;18.43;;;;;7.30;102586.00;;;;10152253;29;20203;-80
2022/03/27 01:43:31;;;;;;;23.17;16.77;;;;;7.30;102594.00;;;;10141227;29;20252;-79
2022/03/27 01:48:33;;;;;;;24.37;16.63;;;;;7.20;102580.00;;;;10133213;29;20278;-78
2022/03/27 01:53:40;;;;;;;27.70;16.67;;;;;7.10;102576.00;;;;10150818;29;20203;-78
2022/03/27 01:58:42;;;;;;;25.00;16.27;;;;;7.00;102580.00;;;;10149269;29;20206;-78
2022/03/27 02:03:44;;;;;;;21.07;15.70;;;;;7.00;102574.00;;;;10136219;29;20281;-79
2022/03/27 02:08:47;;;;;;;25.43;15.93;;;;;7.00;102576.00;;;;10203698;29;20248;-79
2022/03/27 02:13:48;;;;;;;24.77;16.63;;;;;6.90;102578.00;;;;10171465;29;20238;-80
2022/03/27 02:18:50;;;;;;;28.00;17.40;;;;;6.80;102578.00;;;;10171233;29;20258;-79
2022/03/27 02:23:53;;;;;;;25.97;16.23;;;;;6.70;102574.00;;;;10201945;29;20257;-79
2022/03/27 02:28:55;;;;;;;26.13;16.03;;;;;6.60;102575.00;;;;10186552;29;20222;-79
2022/03/27 02:33:56;;;;;;;24.87;16.97;;;;;6.60;102577.00;;;;10155488;29;20808;-79
2022/03/27 02:38:58;;;;;;;24.13;16.13;;;;;6.60;102570.00;;;;10125608;29;20305;-80
2022/03/27 02:44:00;;;;;;;26.97;15.57;;;;;6.50;102571.00;;;;10147591;29;20207;-80
2022/03/27 02:49:02;;;;;;;23.00;16.53;;;;;6.40;102570.00;;;;10146513;29;20218;-80
2022/03/27 02:54:04;;;;;;;23.63;15.00;;;;;6.30;102563.00;;;;10132117;29;20202;-80
2022/03/27 02:59:06;;;;;;;29.43;16.53;;;;;6.30;102577.00;;;;10145929;29;20232;-79
2022/03/27 03:04:08;;;;;;;26.87;16.40;;;;;6.20;102570.00;;;;10137416;29;20613;-80
2022/03/27 03:09:10;;;;;;;23.87;15.97;;;;;6.10;102576.00;;;;10169964;29;20230;-79
2022/03/27 03:14:12;;;;;;;22.30;15.70;;;;;6.10;102569.00;;;;10119516;29;20211;-79
2022/03/27 03:19:29;;;;;;;27.30;16.00;;;;;6.00;102565.00;;;;10123407;29;20210;-80
2022/03/27 03:24:31;;;;;;;25.73;16.93;;;;;6.00;102567.00;;;;10122787;29;20252;-79
2022/03/27 03:29:33;;;;;;;23.60;16.13;;;;;5.90;102572.00;;;;10107947;29;20621;-80
2022/03/27 03:34:35;;;;;;;27.90;17.47;;;;;5.90;102565.00;;;;10130968;29;20206;-80
2022/03/27 03:39:37;;;;;;;25.80;16.37;;;;;5.80;102564.00;;;;10146308;29;20224;-79
2022/03/27 03:44:39;;;;;;;28.50;17.67;;;;;5.70;102563.00;;;;10144761;29;20287;-80
2022/03/27 03:49:41;;;;;;;30.57;16.90;;;;;5.70;102558.00;;;;10135344;29;20521;-80
2022/03/27 03:54:44;;;;;;;23.67;15.90;;;;;5.70;102557.00;;;;10128392;29;20206;-79
2022/03/27 03:59:46;;;;;;;24.47;15.47;;;;;5.60;102570.00;;;;10143498;29;20227;-79
2022/03/27 04:04:48;;;;;;;28.20;16.37;;;;;5.60;102551.00;;;;10131481;29;20644;-79
2022/03/27 04:09:50;;;;;;;28.53;16.83;;;;;5.50;102549.00;;;;10088141;29;20235;-79
2022/03/27 04:14:52;;;;;;;24.07;15.73;;;;;5.50;102553.00;;;;10104274;29;20661;-79
2022/03/27 04:19:54;;;;;;;29.53;17.43;;;;;5.40;102554.00;;;;10103189;29;20210;-79
2022/03/27 04:24:56;;;;;;;25.17;16.47;;;;;5.40;102556.00;;;;10133127;29;20195;-80
2022/03/27 04:29:58;;;;;;;29.57;17.70;;;;;5.40;102565.00;;;;10142792;29;20269;-80
2022/03/27 04:35:02;;;;;;;27.70;17.23;;;;;5.30;102556.00;;;;10126385;29;20207;-80
2022/03/27 04:40:04;;;;;;;23.53;15.67;;;;;5.30;102558.00;;;;10142325;29;20289;-79
2022/03/27 04:45:07;;;;;;;27.10;16.80;;;;;5.30;102557.00;;;;10141628;29;20232;-80
2022/03/27 04:50:09;;;;;;;26.47;17.23;;;;;5.30;102554.00;;;;10108589;29;20242;-80
2022/03/27 04:55:11;;;;;;;28.43;17.33;;;;;5.30;102562.00;;;;10118343;29;20232;-80
2022/03/27 05:00:20;;;;;;;28.50;17.70;;;;;5.30;102563.00;;;;10101915;29;20223;-79
2022/03/27 05:05:22;;;;;;;25.07;16.37;;;;;5.30;102565.00;;;;10119159;29;20627;-80
2022/03/27 05:10:24;;;;;;;31.90;18.63;;;;;5.20;102564.00;;;;10117996;29;20793;-80
2022/03/27 05:15:27;;;;;;;23.60;16.10;;;;;5.20;102564.00;;;;10087737;29;20756;-80
2022/03/27 05:20:30;;;;;;;27.37;17.97;;;;;5.20;102577.00;;;;10085425;29;20199;-80
2022/03/27 05:25:40;;;;;;;29.00;17.30;;;;;5.20;102582.00;;;;10086960;29;20206;-79
2022/03/27 05:30:43;;;;;;;26.23;17.17;;;;;5.10;102581.00;;;;10085628;29;20717;-80
2022/03/27 05:35:45;;;;;;;30.23;17.40;;;;;5.20;102575.00;;;;10142792;29;20233;-79
2022/03/27 05:40:47;;;;;;;29.73;16.80;;;;;5.30;102598.00;;;;10102065;29;20222;-80
2022/03/27 05:45:49;;;;;;;28.90;18.43;;;;;5.50;102585.00;;;;10086728;29;20240;-79
2022/03/27 05:50:51;;;;;;;30.10;17.83;;;;;5.70;102593.00;;;;10122818;29;20237;-79
2022/03/27 05:55:53;;;;;;;33.50;19.17;;;;;5.90;102600.00;;;;10139340;29;20854;-79
2022/03/27 06:00:55;;;;;;;30.93;19.57;;;;;6.20;102601.00;;;;10124136;29;20279;-79
2022/03/27 06:05:57;;;;;;;32.03;19.67;;;;;6.50;102611.00;;;;10123137;29;20203;-80
2022/03/27 06:10:59;;;;;;;34.53;21.57;;;;;6.80;102611.00;;;;10104169;29;20288;-80
2022/03/27 06:16:01;;;;;;;43.60;23.43;;;;;7.00;102623.00;;;;10099214;29;20620;-80
2022/03/27 06:21:03;;;;;;;39.80;23.40;;;;;7.20;102628.00;;;;10089249;29;20626;-80
2022/03/27 06:26:06;;;;;;;47.17;24.87;;;;;7.40;102633.00;;;;10115451;29;20639;-80
2022/03/27 06:31:08;;;;;;;54.60;28.43;;;;;7.50;102633.00;;;;10123979;29;20226;-79
2022/03/27 06:36:11;;;;;;;51.37;28.23;;;;;7.60;102633.00;;;;10166548;29;20202;-79
2022/03/27 06:41:14;;;;;;;64.87;29.40;;;;;7.80;102638.00;;;;10121933;29;20200;-80
2022/03/27 06:46:17;;;;;;;61.97;31.07;;;;;7.90;102630.00;;;;10111348;29;20702;-80
2022/03/27 06:51:19;;;;;;;62.50;31.83;;;;;8.10;102638.00;;;;10145305;29;20295;-79
2022/03/27 06:56:21;;;;;;;67.70;32.17;;;;;8.20;102635.00;;;;10160083;29;20717;-79
2022/03/27 07:06:44;;;;;;;87.20;37.97;;;;;8.40;102640.00;;;;10143670;29;20234;-79
2022/03/27 07:11:47;;;;;;;82.27;38.20;;;;;8.50;102643.00;;;;10115308;29;20295;-79
2022/03/27 07:16:49;;;;;;;82.83;36.47;;;;;8.60;102635.00;;;;10105577;29;20207;-80
2022/03/27 07:21:51;;;;;;;81.30;38.80;;;;;8.60;102639.00;;;;10120840;29;20199;-79
2022/03/27 07:26:53;;;;;;;76.97;36.47;;;;;8.70;102633.00;;;;10120628;29;20319;-79
2022/03/27 07:31:55;;;;;;;85.17;36.90;;;;;8.70;102646.00;;;;10105347;29;20276;-80
2022/03/27 07:37:04;;;;;;;88.73;38.87;;;;;8.70;102651.00;;;;10171527;29;20203;-80
2022/03/27 07:42:06;;;;;;;84.30;37.90;;;;;8.80;102655.00;;;;10144195;29;20272;-80
2022/03/27 07:47:08;;;;;;;101.70;39.77;;;;;8.80;102661.00;;;;10171072;29;20203;-80
2022/03/27 07:52:10;;;;;;;83.83;39.53;;;;;9.00;102655.00;;;;10143141;29;20226;-79
2022/03/27 07:57:13;;;;;;;93.53;41.43;;;;;9.10;102657.00;;;;10146208;29;20206;-79
2022/03/27 08:02:16;;;;;;;87.10;40.83;;;;;9.20;102661.00;;;;10131851;29;20234;-80
2022/03/27 08:07:19;;;;;;;90.53;38.57;;;;;9.30;102657.00;;;;10159423;29;20236;-80
2022/03/27 08:12:21;;;;;;;92.07;39.50;;;;;9.40;102659.00;;;;10197530;29;20222;-80
2022/03/27 08:17:23;;;;;;;82.63;37.00;;;;;9.30;102662.00;;;;10166001;29;20202;-80
2022/03/27 08:22:25;;;;;;;82.13;35.97;;;;;9.40;102658.00;;;;10198247;29;20197;-79
2022/03/27 08:27:27;;;;;;;80.40;36.97;;;;;9.60;102663.00;;;;10181715;29;20231;-79
2022/03/27 08:32:29;;;;;;;89.63;38.80;;;;;9.80;102668.00;;;;10199338;29;20224;-80
2022/03/27 08:37:31;;;;;;;76.20;38.07;;;;;9.90;102673.00;;;;10145515;29;20211;-80
2022/03/27 08:42:33;;;;;;;77.63;35.07;;;;;9.80;102678.00;;;;10104537;29;20345;-80
2022/03/27 08:47:38;;;;;;;77.13;37.17;;;;;9.90;102689.00;;;;10103768;29;20228;-79
2022/03/27 08:52:56;;;;;;;80.70;38.27;;;;;10.00;102675.00;;;;10142208;29;20223;-81
2022/03/27 08:58:03;;;;;;;72.00;35.93;;;;;10.20;102673.00;;;;10144499;29;20254;-79
2022/03/27 09:03:06;;;;;;;87.37;37.87;;;;;10.40;102678.00;;;;10145910;29;20222;-80
2022/03/27 09:08:09;;;;;;;74.57;36.63;;;;;10.50;102673.00;;;;10106432;29;20217;-80
2022/03/27 09:13:17;;;;;;;75.30;35.50;;;;;10.50;102678.00;;;;10090775;29;20200;-80
2022/03/27 09:18:19;;;;;;;73.70;36.27;;;;;10.50;102679.00;;;;10104869;29;20663;-80
2022/03/27 09:23:30;;;;;;;70.40;35.67;;;;;10.60;102676.00;;;;10103445;29;20196;-79
2022/03/27 09:28:40;;;;;;;81.53;36.37;;;;;10.70;102675.00;;;;10105795;29;20243;-80
2022/03/27 09:33:57;;;;;;;73.53;34.03;;;;;10.90;102681.00;;;;10103793;29;20237;-80
2022/03/27 09:39:04;;;;;;;69.97;36.80;;;;;11.10;102672.00;;;;10159060;29;20269;-80
2022/03/27 09:44:10;;;;;;;68.07;34.20;;;;;11.20;102675.00;;;;10181378;29;20202;-80
2022/03/27 09:49:12;;;;;;;68.47;34.43;;;;;11.20;102669.00;;;;10181486;29;20225;-80
2022/03/27 09:54:14;;;;;;;67.07;33.60;;;;;11.30;102665.00;;;;10164628;29;20201;-79
2022/03/27 09:59:31;;;;;;;62.17;31.80;;;;;11.30;102663.00;;;;10166065;29;20198;-80
2022/03/27 10:04:50;;;;;;;70.97;35.10;;;;;11.30;102661.00;;;;10187678;29;20211;-80
2022/03/27 10:09:53;;;;;;;65.27;33.43;;;;;11.50;102658.00;;;;10164499;29;20233;-80
2022/03/27 10:14:59;;;;;;;66.17;34.00;;;;;11.50;102658.00;;;;10149354;29;20600;-79
2022/03/27 10:20:08;;;;;;;64.00;32.07;;;;;11.50;102651.00;;;;10132773;29;20890;-79
2022/03/27 10:25:13;;;;;;;60.70;32.20;;;;;11.60;102657.00;;;;10148343;29;20206;-79
2022/03/27 10:30:16;;;;;;;63.13;32.83;;;;;11.70;102659.00;;;;10132186;29;20279;-79
2022/03/27 10:35:29;;;;;;;62.23;31.73;;;;;11.70;102651.00;;;;10149121;29;20785;-79
2022/03/27 10:40:40;;;;;;;65.53;32.80;;;;;11.90;102649.00;;;;10133150;29;20211;-80
2022/03/27 10:45:42;;;;;;;63.87;32.93;;;;;12.00;102638.00;;;;10132774;29;20210;-79
2022/03/27 10:50:49;;;;;;;64.43;32.63;;;;;12.10;102643.00;;;;10146378;29;20305;-80
2022/03/27 10:55:53;;;;;;;68.47;33.90;;;;;12.10;102642.00;;;;10147535;29;20210;-80
2022/03/27 11:00:57;;;;;;;63.27;34.20;;;;;12.10;102641.00;;;;10131633;29;20234;-79
2022/03/27 11:05:59;;;;;;;72.67;37.10;;;;;12.20;102633.00;;;;10148484;29;20214;-80
2022/03/27 11:11:02;;;;;;;74.20;35.83;;;;;12.30;102625.00;;;;10124738;29;20326;-80
2022/03/27 11:16:05;;;;;;;63.90;33.60;;;;;12.50;102621.00;;;;10125795;29;20284;-79
2022/03/27 11:21:34;;;;;;;55.83;32.07;;;;;12.60;102620.00;;;;10123856;29;20196;-80
2022/03/27 11:26:37;;;;;;;61.20;33.27;;;;;12.70;102613.00;;;;10120763;29;20207;-79
2022/03/27 11:31:41;;;;;;;72.73;35.40;;;;;13.00;102604.00;;;;10109149;29;20228;-79
2022/03/27 11:36:48;;;;;;;65.07;34.50;;;;;13.20;102597.00;;;;10168174;29;20210;-80
2022/03/27 11:41:50;;;;;;;68.33;34.30;;;;;13.30;102597.00;;;;10186496;29;20231;-79
2022/03/27 11:46:57;;;;;;;60.50;32.67;;;;;13.30;102590.00;;;;10176247;29;20199;-80
2022/03/27 11:52:08;;;;;;;57.43;32.63;;;;;13.40;102592.00;;;;10145254;29;20273;-79
2022/03/27 11:57:11;;;;;;;62.67;33.63;;;;;13.70;102583.00;;;;10130428;29;20206;-79
2022/03/27 12:02:14;;;;;;;57.20;32.73;;;;;14.20;102573.00;;;;10145219;29;20278;-80
2022/03/27 12:07:16;;;;;;;57.80;32.70;;;;;14.50;102574.00;;;;10147100;29;20293;-79
2022/03/27 12:12:19;;;;;;;58.47;31.20;;;;;14.40;102574.00;;;;10129780;29;20222;-80
2022/03/27 12:17:36;;;;;;;54.80;32.70;;;;;14.30;102555.00;;;;10120974;29;20218;-80
2022/03/27 12:22:46;;;;;;;58.13;32.57;;;;;14.40;102557.00;;;;10106686;29;20210;-79
2022/03/27 12:33:21;;;;;;;54.40;31.73;;;;;15.20;102541.00;;;;10149047;29;20269;-80
2022/03/27 12:38:31;;;;;;;55.00;30.97;;;;;15.50;102545.00;;;;10127415;29;20199;-80
2022/03/27 12:43:33;;;;;;;54.07;30.77;;;;;15.40;102533.00;;;;10142937;29;20259;-80
2022/03/27 12:48:35;;;;;;;58.50;31.10;;;;;15.50;102532.00;;;;10126735;29;20206;-79
2022/03/27 12:53:36;;;;;;;51.33;32.30;;;;;15.60;102519.00;;;;10175546;29;20260;-79
2022/03/27 12:58:41;;;;;;;46.70;27.00;;;;;15.70;102526.00;;;;10142523;29;20259;-80
2022/03/27 13:04:00;;;;;;;46.03;27.57;;;;;15.90;102502.00;;;;10143930;29;20317;-79
2022/03/27 13:09:04;;;;;;;47.77;29.63;;;;;16.10;102512.00;;;;10127566;29;20317;-79
2022/03/27 13:14:07;;;;;;;37.33;25.90;;;;;16.60;102496.00;;;;10140901;29;20251;-80
2022/03/27 13:19:11;;;;;;;42.03;28.07;;;;;17.20;102485.00;;;;10157862;29;20198;-79
2022/03/27 13:24:22;;;;;;;39.03;27.23;;;;;17.10;102493.00;;;;10110882;29;20209;-79
2022/03/27 13:29:24;;;;;;;37.63;27.30;;;;;17.30;102487.00;;;;10140531;29;20214;-78
2022/03/27 13:34:26;;;;;;;36.83;26.97;;;;;17.40;102471.00;;;;10140426;29;20207;-78
2022/03/27 13:39:29;;;;;;;38.93;28.30;;;;;19.30;102453.00;;;;10125821;29;20574;-79
2022/03/27 13:44:33;;;;;;;39.53;28.47;;;;;22.20;102434.00;;;;10162436;29;20198;-79
2022/03/27 13:49:40;;;;;;;40.40;29.75;;;;;21.30;102449.00;;;;10164782;29;20693;-79
2022/03/27 13:54:42;;;;;;;35.63;26.77;;;;;20.70;102413.00;;;;10156060;29;20219;-79
2022/03/27 13:59:44;;;;;;;35.42;27.67;;;;;22.80;102399.00;;;;10124586;29;20248;-79
2022/03/27 14:04:47;;;;;;;36.55;28.45;;;;;23.70;102392.00;;;;10120400;29;20240;-80
2022/03/27 14:09:49;;;;;;;34.63;27.85;;;;;24.30;102378.00;;;;10166085;29;20551;-79
2022/03/27 14:14:55;;;;;;;35.35;27.05;;;;;25.10;102358.00;;;;10136648;29;20203;-80
2022/03/27 14:19:57;;;;;;;34.80;27.30;;;;;25.10;102352.00;;;;10152337;29;20210;-80
2022/03/27 14:24:59;;;;;;;32.60;25.88;;;;;25.90;102350.00;;;;10154301;29;20227;-80
2022/03/27 14:30:02;;;;;;;32.13;25.50;;;;;26.10;102342.00;;;;10168667;29;20253;-81
2022/03/27 14:35:05;;;;;;;32.85;25.60;;;;;24.60;102372.00;;;;10140253;29;20219;-80
2022/03/27 14:40:10;;;;;;;35.42;28.13;;;;;22.20;102353.00;;;;10132367;29;20298;-80
2022/03/27 14:45:14;;;;;;;35.28;26.17;;;;;24.60;102328.00;;;;10098634;29;20196;-79
2022/03/27 14:50:18;;;;;;;30.52;24.63;;;;;23.40;102327.00;;;;10173254;29;20313;-80
2022/03/27 15:00:41;;;;;;;28.85;24.15;;;;;23.40;102304.00;;;;10125645;29;20260;-80
2022/03/27 15:05:43;;;;;;;29.73;24.35;;;;;22.40;102350.00;;;;10111400;29;20245;-80
2022/03/27 15:10:45;;;;;;;27.75;21.77;;;;;23.00;102321.00;;;;10161326;29;20231;-81
2022/03/27 15:15:47;;;;;;;31.80;25.38;;;;;24.30;102317.00;;;;10145669;29;20210;-79
2022/03/27 15:20:49;;;;;;;27.70;22.80;;;;;21.80;102324.00;;;;10161157;29;20267;-81
2022/03/27 15:25:51;;;;;;;29.58;23.95;;;;;20.80;102314.00;;;;10129179;29;20380;-80
2022/03/27 15:30:53;;;;;;;29.20;22.67;;;;;20.00;102318.00;;;;10128334;29;20223;-80
2022/03/27 15:35:55;;;;;;;28.05;21.75;;;;;19.50;102309.00;;;;10162921;29;20257;-81
2022/03/27 15:40:57;;;;;;;29.75;20.92;;;;;20.20;102306.00;;;;10151203;29;20214;-80
2022/03/27 15:45:59;;;;;;;27.58;21.10;;;;;19.30;102307.00;;;;10127933;29;20211;-80
2022/03/27 15:51:01;;;;;;;28.55;21.98;;;;;19.70;102289.00;;;;10161040;29;20251;-80
2022/03/27 15:56:06;;;;;;;26.10;19.42;;;;;18.50;102297.00;;;;10128722;29;20246;-81
2022/03/27 16:01:11;;;;;;;25.35;18.52;;;;;17.50;102286.00;;;;10124083;29;20224;-80
2022/03/27 16:06:14;;;;;;;26.47;20.03;;;;;16.60;102290.00;;;;10156931;29;20571;-80
2022/03/27 16:11:16;;;;;;;27.97;20.70;;;;;16.40;102278.00;;;;10143420;29;20283;-79
2022/03/27 16:16:18;;;;;;;26.80;19.80;;;;;16.00;102276.00;;;;10142464;29;20261;-80
2022/03/27 16:21:21;;;;;;;25.47;17.93;;;;;15.70;102272.00;;;;10128272;29;20209;-80
2022/03/27 16:26:23;;;;;;;25.43;18.67;;;;;15.60;102274.00;;;;10130638;29;20199;-80
2022/03/27 16:31:25;;;;;;;24.80;17.07;;;;;15.50;102262.00;;;;10145726;29;20217;-81
2022/03/27 16:36:28;;;;;;;24.17;17.23;;;;;15.30;102265.00;;;;10153270;29;20206;-81
2022/03/27 16:41:30;;;;;;;20.90;14.77;;;;;15.20;102272.00;;;;10134963;29;20296;-81
2022/03/27 16:46:32;;;;;;;23.87;16.17;;;;;15.00;102276.00;;;;10131805;29;20203;-81
2022/03/27 16:51:34;;;;;;;21.33;15.03;;;;;14.90;102263.00;;;;10146523;29;20239;-81
2022/03/27 16:56:36;;;;;;;33.07;21.93;;;;;14.90;102262.00;;;;10144735;29;20255;-81
2022/03/27 17:01:38;;;;;;;25.83;16.73;;;;;14.80;102264.00;;;;10130845;29;20226;-80
2022/03/27 17:06:40;;;;;;;23.80;15.93;;;;;14.70;102254.00;;;;10131632;29;20267;-80
2022/03/27 17:11:42;;;;;;;23.93;15.17;;;;;14.60;102264.00;;;;10131793;29;20253;-80
2022/03/27 17:16:44;;;;;;;25.27;15.70;;;;;14.50;102263.00;;;;10145868;29;20241;-82
2022/03/27 17:21:46;;;;;;;32.47;18.57;;;;;14.30;102260.00;;;;10130555;29;20222;-81
2022/03/27 17:26:48;;;;;;;23.43;15.57;;;;;14.20;102266.00;;;;10131238;29;20198;-81
2022/03/27 17:31:51;;;;;;;22.90;15.90;;;;;14.00;102267.00;;;;10126153;29;20325;-80
2022/03/27 17:37:01;;;;;;;23.40;15.60;;;;;13.90;102273.00;;;;10166140;29;20210;-80
2022/03/27 17:42:06;;;;;;;25.53;15.53;;;;;13.80;102264.00;;;;10162236;29;20203;-80
2022/03/27 17:47:08;;;;;;;22.10;14.80;;;;;13.60;102279.00;;;;10130257;29;20206;-81
2022/03/27 17:52:10;;;;;;;21.53;14.73;;;;;13.30;102268.00;;;;10130619;29;20253;-80
2022/03/27 17:57:12;;;;;;;23.97;14.60;;;;;13.00;102264.00;;;;10145005;29;20210;-80
2022/03/27 18:02:15;;;;;;;23.63;15.07;;;;;12.70;102262.00;;;;10127577;29;20730;-81
2022/03/27 18:07:17;;;;;;;24.80;14.67;;;;;12.40;102259.00;;;;10134363;29;20575;-81
2022/03/27 18:12:20;;;;;;;21.40;14.53;;;;;12.10;102269.00;;;;10103801;29;20231;-80
2022/03/27 18:17:22;;;;;;;25.20;16.30;;;;;11.80;102274.00;;;;10087490;29;20200;-81
2022/03/27 18:22:25;;;;;;;26.50;15.87;;;;;11.60;102273.00;;;;10089170;29;20203;-79
2022/03/27 18:27:27;;;;;;;24.07;15.53;;;;;11.30;102272.00;;;;10090220;29;20820;-81
2022/03/27 18:32:29;;;;;;;33.10;18.03;;;;;11.10;102281.00;;;;10117005;29;20670;-81
2022/03/27 18:37:30;;;;;;;29.47;18.10;;;;;11.00;102281.00;;;;10134306;29;20202;-80
2022/03/27 18:42:32;;;;;;;26.27;17.00;;;;;10.80;102274.00;;;;10151974;29;20196;-81
2022/03/27 18:47:34;;;;;;;27.23;16.27;;;;;10.60;102283.00;;;;10150929;29;20295;-80
2022/03/27 18:52:37;;;;;;;27.37;17.37;;;;;10.40;102275.00;;;;10110303;29;20243;-81
2022/03/27 18:57:38;;;;;;;26.63;17.07;;;;;10.20;102271.00;;;;10109059;29;20196;-80
2022/03/27 19:02:40;;;;;;;30.13;18.03;;;;;10.10;102270.00;;;;10125380;29;20232;-80
2022/03/27 19:07:42;;;;;;;26.10;18.03;;;;;9.90;102278.00;;;;10169309;29;20206;-81
2022/03/27 19:12:44;;;;;;;28.03;17.63;;;;;9.80;102280.00;;;;10173430;29;20230;-80
2022/03/27 19:17:54;;;;;;;28.70;17.90;;;;;9.70;102285.00;;;;10172369;29;20661;-81
2022/03/27 19:23:07;;;;;;;33.27;18.17;;;;;9.60;102285.00;;;;10187134;29;20261;-79
2022/03/27 19:28:13;;;;;;;29.97;16.53;;;;;9.50;102283.00;;;;10170205;29;20198;-80
2022/03/27 19:33:15;;;;;;;34.27;17.90;;;;;9.40;102284.00;;;;10164794;29;20572;-80
2022/03/27 19:38:17;;;;;;;31.93;17.73;;;;;9.30;102289.00;;;;10116939;29;20731;-81
2022/03/27 19:43:19;;;;;;;28.63;17.90;;;;;9.10;102282.00;;;;10203037;29;20237;-80
2022/03/27 19:48:26;;;;;;;30.10;18.43;;;;;9.00;102289.00;;;;10155981;29;20253;-81
2022/03/27 19:53:28;;;;;;;26.77;17.40;;;;;8.90;102290.00;;;;10169847;29;20681;-81
2022/03/27 19:58:32;;;;;;;31.47;19.07;;;;;8.90;102295.00;;;;10186334;29;20206;-81
2022/03/27 20:03:37;;;;;;;33.63;18.97;;;;;8.80;102297.00;;;;10182140;29;20571;-80
2022/03/27 20:08:39;;;;;;;28.40;18.30;;;;;8.70;102293.00;;;;10145712;29;20218;-81
2022/03/27 20:13:42;;;;;;;32.73;19.80;;;;;8.50;102292.00;;;;10106937;29;20238;-80
2022/03/27 20:18:44;;;;;;;36.07;19.67;;;;;8.40;102280.00;;;;10122654;29;20207;-80
2022/03/27 20:23:48;;;;;;;32.97;18.70;;;;;8.40;102279.00;;;;10121771;29;20693;-81
2022/03/27 20:28:51;;;;;;;36.47;21.43;;;;;8.30;102287.00;;;;10137512;29;20195;-81
2022/03/27 20:33:53;;;;;;;34.90;20.03;;;;;8.20;102287.00;;;;10141831;29;20249;-81
2022/03/27 20:38:54;;;;;;;33.50;19.57;;;;;8.10;102293.00;;;;10159035;29;20354;-81
2022/03/27 20:43:56;;;;;;;35.23;18.97;;;;;8.00;102286.00;;;;10167271;29;20254;-81
2022/03/27 20:48:58;;;;;;;33.23;19.60;;;;;8.00;102280.00;;;;10154450;29;20199;-80
2022/03/27 20:54:01;;;;;;;33.90;20.33;;;;;7.90;102284.00;;;;10143610;29;20313;-81
2022/03/27 20:59:04;;;;;;;39.97;20.63;;;;;7.80;102278.00;;;;10130194;29;20199;-81
2022/03/27 21:04:06;;;;;;;30.83;19.27;;;;;7.70;102282.00;;;;10133035;29;20744;-80
2022/03/27 21:09:08;;;;;;;35.20;20.30;;;;;7.60;102278.00;;;;10181568;29;20249;-81
2022/03/27 21:14:10;;;;;;;33.17;19.93;;;;;7.50;102272.00;;;;10133241;29;20231;-80
2022/03/27 21:19:12;;;;;;;32.40;20.00;;;;;7.40;102263.00;;;;10122284;29;20252;-79
2022/03/27 21:24:14;;;;;;;35.27;22.57;;;;;7.40;102267.00;;;;10124127;29;20281;-80
2022/03/27 21:29:16;;;;;;;35.40;21.70;;;;;7.30;102270.00;;;;10107606;29;20206;-80
2022/03/27 21:34:18;;;;;;;39.30;22.17;;;;;7.20;102269.00;;;;10143212;29;20233;-79
2022/03/27 21:39:20;;;;;;;42.97;25.17;;;;;7.20;102272.00;;;;10147887;29;20627;-80
2022/03/27 21:44:23;;;;;;;38.00;24.37;;;;;7.10;102262.00;;;;10143160;29;20297;-80
2022/03/27 21:49:25;;;;;;;36.97;22.67;;;;;7.00;102269.00;;;;10134091;29;20214;-80
2022/03/27 21:54:27;;;;;;;39.73;22.83;;;;;6.90;102265.00;;;;10127168;29;20664;-80
2022/03/27 21:59:29;;;;;;;37.63;22.03;;;;;6.80;102254.00;;;;10157734;29;20582;-80
2022/03/27 22:04:31;;;;;;;35.10;21.77;;;;;6.70;102246.00;;;;10143952;29;20836;-81
2022/03/27 22:09:33;;;;;;;39.17;22.20;;;;;6.60;102251.00;;;;10175103;29;20197;-80
2022/03/27 22:14:35;;;;;;;35.73;22.63;;;;;6.50;102248.00;;;;10174425;29;20222;-80
2022/03/27 22:19:37;;;;;;;41.63;22.13;;;;;6.40;102247.00;;;;10190588;29;20809;-81
2022/03/27 22:24:39;;;;;;;39.10;21.53;;;;;6.40;102248.00;;;;10189477;29;20221;-81
2022/03/27 22:29:41;;;;;;;37.77;23.70;;;;;6.30;102251.00;;;;10172647;29;20206;-81
2022/03/27 22:34:42;;;;;;;41.30;24.73;;;;;6.30;102242.00;;;;10153908;29;20260;-81
2022/03/27 22:39:44;;;;;;;41.67;24.87;;;;;6.20;102236.00;;;;10132871;29;20218;-80
2022/03/27 22:44:46;;;;;;;37.33;23.43;;;;;6.10;102227.00;;;;10147109;29;20203;-80
2022/03/27 22:49:48;;;;;;;39.03;23.73;;;;;6.10;102234.00;;;;10164024;29;20209;-80
2022/03/27 22:54:52;;;;;;;40.83;24.80;;;;;6.00;102220.00;;;;10162463;29;20253;-81
2022/03/27 22:59:54;;;;;;;40.50;24.10;;;;;6.00;102232.00;;;;10132389;29;20218;-81
2022/03/27 23:04:56;;;;;;;45.17;27.20;;;;;5.90;102222.00;;;;10120901;29;20203;-81
2022/03/27 23:09:58;;;;;;;48.53;28.53;;;;;5.90;102218.00;;;;10162186;29;20202;-80
2022/03/27 23:15:01;;;;;;;44.13;26.47;;;;;5.90;102220.00;;;;10129796;29;20322;-81
2022/03/27 23:20:04;;;;;;;47.43;25.97;;;;;5.80;102208.00;;;;10145919;29;20573;-80
2022/03/27 23:25:07;;;;;;;48.23;27.53;;;;;5.80;102195.00;;;;10130288;29;20217;-80
2022/03/27 23:30:10;;;;;;;43.53;26.67;;;;;5.80;102195.00;;;;10129677;29;20611;-80
2022/03/27 23:35:12;;;;;;;45.23;25.10;;;;;5.70;102191.00;;;;10128774;29;20210;-80
2022/03/27 23:40:14;;;;;;;42.73;25.20;;;;;5.60;102183.00;;;;10105850;29;20208;-80
2022/03/27 23:45:17;;;;;;;46.07;27.47;;;;;5.50;102165.00;;;;10121979;29;20188;-80
2022/03/27 23:50:19;;;;;;;46.70;26.67;;;;;5.50;102174.00;;;;10107086;29;20203;-80
2022/03/27 23:55:20;;;;;;;40.17;25.43;;;;;5.40;102159.00;;;;10128992;29;20203;-81
